sensor_id;sensor_type;location;lat;lon;timestamp;P1;durP1;ratioP1;P2;durP2;ratioP2
4468;SDS011;2247;42.666;23.292;2024-03-08T00:02:07;4.83;;;2.90;;
4468;SDS011;2247;42.666;23.292;2024-03-08T00:04:34;5.80;;;3.40;;
4468;SDS011;2247;42.666;23.292;2024-03-08T00:07:01;3.60;;;2.90;;
4468;SDS011;2247;42.666;23.292;2024-03-08T00:09:30;5.13;;;3.70;;
4468;SDS011;2247;42.666;23.292;2024-03-08T00:11:57;4.77;;;3.60;;
4468;SDS011;2247;42.666;23.292;2024-03-08T00:14:25;5.43;;;4.20;;
4468;SDS011;2247;42.666;23.292;2024-03-08T00:16:52;4.20;;;2.73;;
4468;SDS011;2247;42.666;23.292;2024-03-08T00:19:21;3.37;;;2.90;;
4468;SDS011;2247;42.666;23.292;2024-03-08T00:21:47;3.10;;;2.80;;
4468;SDS011;2247;42.666;23.292;2024-03-08T00:24:14;3.60;;;2.77;;
4468;SDS011;2247;42.666;23.292;2024-03-08T00:26:41;3.27;;;2.50;;
4468;SDS011;2247;42.666;23.292;2024-03-08T00:29:08;2.80;;;2.37;;
4468;SDS011;2247;42.666;23.292;2024-03-08T00:31:36;3.37;;;2.73;;
4468;SDS011;2247;42.666;23.292;2024-03-08T00:34:03;4.07;;;2.73;;
4468;SDS011;2247;42.666;23.292;2024-03-08T00:36:30;4.47;;;3.10;;
4468;SDS011;2247;42.666;23.292;2024-03-08T00:38:57;3.07;;;2.77;;
4468;SDS011;2247;42.666;23.292;2024-03-08T00:41:25;3.30;;;2.50;;
4468;SDS011;2247;42.666;23.292;2024-03-08T00:43:52;3.77;;;2.80;;
4468;SDS011;2247;42.666;23.292;2024-03-08T00:46:19;3.27;;;2.70;;
4468;SDS011;2247;42.666;23.292;2024-03-08T00:48:48;4.00;;;2.87;;
4468;SDS011;2247;42.666;23.292;2024-03-08T00:51:15;3.47;;;2.17;;
4468;SDS011;2247;42.666;23.292;2024-03-08T00:53:43;3.60;;;2.37;;
4468;SDS011;2247;42.666;23.292;2024-03-08T00:56:10;2.27;;;2.07;;
4468;SDS011;2247;42.666;23.292;2024-03-08T00:58:37;5.57;;;1.80;;
4468;SDS011;2247;42.666;23.292;2024-03-08T01:01:04;2.00;;;1.80;;
4468;SDS011;2247;42.666;23.292;2024-03-08T01:03:31;1.90;;;1.70;;
4468;SDS011;2247;42.666;23.292;2024-03-08T01:06:00;1.60;;;1.50;;
4468;SDS011;2247;42.666;23.292;2024-03-08T01:08:28;1.63;;;1.53;;
4468;SDS011;2247;42.666;23.292;2024-03-08T01:10:55;2.47;;;1.70;;
4468;SDS011;2247;42.666;23.292;2024-03-08T01:13:22;2.20;;;1.80;;
4468;SDS011;2247;42.666;23.292;2024-03-08T01:15:49;2.00;;;1.90;;
4468;SDS011;2247;42.666;23.292;2024-03-08T01:18:16;1.93;;;1.73;;
4468;SDS011;2247;42.666;23.292;2024-03-08T01:20:44;2.43;;;2.10;;
4468;SDS011;2247;42.666;23.292;2024-03-08T01:23:13;2.07;;;1.87;;
4468;SDS011;2247;42.666;23.292;2024-03-08T01:25:40;1.97;;;1.80;;
4468;SDS011;2247;42.666;23.292;2024-03-08T01:28:08;1.70;;;1.60;;
4468;SDS011;2247;42.666;23.292;2024-03-08T01:30:35;1.73;;;1.60;;
4468;SDS011;2247;42.666;23.292;2024-03-08T01:33:04;2.90;;;1.57;;
4468;SDS011;2247;42.666;23.292;2024-03-08T01:35:31;1.90;;;1.80;;
4468;SDS011;2247;42.666;23.292;2024-03-08T01:37:58;2.07;;;1.90;;
4468;SDS011;2247;42.666;23.292;2024-03-08T01:40:26;1.90;;;1.70;;
4468;SDS011;2247;42.666;23.292;2024-03-08T01:42:53;2.23;;;2.03;;
4468;SDS011;2247;42.666;23.292;2024-03-08T01:45:20;2.43;;;1.97;;
4468;SDS011;2247;42.666;23.292;2024-03-08T01:47:47;2.37;;;1.80;;
4468;SDS011;2247;42.666;23.292;2024-03-08T01:50:14;1.60;;;1.50;;
4468;SDS011;2247;42.666;23.292;2024-03-08T01:52:42;1.93;;;1.73;;
4468;SDS011;2247;42.666;23.292;2024-03-08T01:55:09;1.50;;;1.40;;
4468;SDS011;2247;42.666;23.292;2024-03-08T01:57:37;1.60;;;1.50;;
4468;SDS011;2247;42.666;23.292;2024-03-08T02:00:05;1.57;;;1.47;;
4468;SDS011;2247;42.666;23.292;2024-03-08T02:02:35;1.80;;;1.43;;
4468;SDS011;2247;42.666;23.292;2024-03-08T02:05:03;1.83;;;1.20;;
4468;SDS011;2247;42.666;23.292;2024-03-08T02:07:31;1.50;;;1.40;;
4468;SDS011;2247;42.666;23.292;2024-03-08T02:09:58;1.80;;;1.70;;
4468;SDS011;2247;42.666;23.292;2024-03-08T02:12:25;1.50;;;1.40;;
4468;SDS011;2247;42.666;23.292;2024-03-08T02:14:55;2.30;;;1.80;;
4468;SDS011;2247;42.666;23.292;2024-03-08T02:17:22;1.80;;;1.60;;
4468;SDS011;2247;42.666;23.292;2024-03-08T02:19:49;2.00;;;1.80;;
4468;SDS011;2247;42.666;23.292;2024-03-08T02:22:17;1.83;;;1.70;;
4468;SDS011;2247;42.666;23.292;2024-03-08T02:24:44;2.27;;;2.00;;
4468;SDS011;2247;42.666;23.292;2024-03-08T02:27:11;2.00;;;1.90;;
4468;SDS011;2247;42.666;23.292;2024-03-08T02:29:38;1.77;;;1.67;;
4468;SDS011;2247;42.666;23.292;2024-03-08T02:32:06;1.87;;;1.77;;
4468;SDS011;2247;42.666;23.292;2024-03-08T02:34:34;2.03;;;1.87;;
4468;SDS011;2247;42.666;23.292;2024-03-08T02:37:01;2.70;;;2.13;;
4468;SDS011;2247;42.666;23.292;2024-03-08T02:39:30;1.53;;;1.43;;
4468;SDS011;2247;42.666;23.292;2024-03-08T02:41:57;2.13;;;1.93;;
4468;SDS011;2247;42.666;23.292;2024-03-08T02:44:24;2.40;;;2.20;;
4468;SDS011;2247;42.666;23.292;2024-03-08T02:46:51;1.60;;;1.50;;
4468;SDS011;2247;42.666;23.292;2024-03-08T02:49:20;1.40;;;1.30;;
4468;SDS011;2247;42.666;23.292;2024-03-08T02:51:47;1.30;;;1.20;;
4468;SDS011;2247;42.666;23.292;2024-03-08T02:54:14;1.57;;;1.33;;
4468;SDS011;2247;42.666;23.292;2024-03-08T02:56:44;1.10;;;1.10;;
4468;SDS011;2247;42.666;23.292;2024-03-08T02:59:11;3.23;;;1.30;;
4468;SDS011;2247;42.666;23.292;2024-03-08T03:01:38;1.87;;;1.77;;
4468;SDS011;2247;42.666;23.292;2024-03-08T03:04:06;1.50;;;1.40;;
4468;SDS011;2247;42.666;23.292;2024-03-08T03:06:33;1.80;;;1.70;;
4468;SDS011;2247;42.666;23.292;2024-03-08T03:09:00;1.40;;;1.30;;
4468;SDS011;2247;42.666;23.292;2024-03-08T03:11:27;1.83;;;1.73;;
4468;SDS011;2247;42.666;23.292;2024-03-08T03:13:56;3.57;;;1.47;;
4468;SDS011;2247;42.666;23.292;2024-03-08T03:16:23;1.90;;;1.67;;
4468;SDS011;2247;42.666;23.292;2024-03-08T03:18:50;1.77;;;1.47;;
4468;SDS011;2247;42.666;23.292;2024-03-08T03:21:17;1.60;;;1.33;;
4468;SDS011;2247;42.666;23.292;2024-03-08T03:23:44;1.50;;;1.40;;
4468;SDS011;2247;42.666;23.292;2024-03-08T03:26:11;1.07;;;1.07;;
4468;SDS011;2247;42.666;23.292;2024-03-08T03:28:38;1.30;;;1.20;;
4468;SDS011;2247;42.666;23.292;2024-03-08T03:31:07;1.50;;;1.40;;
4468;SDS011;2247;42.666;23.292;2024-03-08T03:33:35;1.17;;;1.07;;
4468;SDS011;2247;42.666;23.292;2024-03-08T03:36:02;1.30;;;1.20;;
4468;SDS011;2247;42.666;23.292;2024-03-08T03:38:30;1.30;;;1.20;;
4468;SDS011;2247;42.666;23.292;2024-03-08T03:40:57;1.10;;;1.00;;
4468;SDS011;2247;42.666;23.292;2024-03-08T03:43:31;1.40;;;1.30;;
4468;SDS011;2247;42.666;23.292;2024-03-08T03:45:58;1.03;;;1.00;;
4468;SDS011;2247;42.666;23.292;2024-03-08T03:48:27;1.20;;;1.10;;
4468;SDS011;2247;42.666;23.292;2024-03-08T03:50:53;1.20;;;1.10;;
4468;SDS011;2247;42.666;23.292;2024-03-08T03:53:20;1.30;;;1.20;;
4468;SDS011;2247;42.666;23.292;2024-03-08T03:55:47;1.10;;;1.10;;
4468;SDS011;2247;42.666;23.292;2024-03-08T03:58:14;1.10;;;1.00;;
4468;SDS011;2247;42.666;23.292;2024-03-08T04:00:41;1.10;;;1.00;;
4468;SDS011;2247;42.666;23.292;2024-03-08T04:03:08;1.10;;;1.00;;
4468;SDS011;2247;42.666;23.292;2024-03-08T04:05:37;1.20;;;1.10;;
4468;SDS011;2247;42.666;23.292;2024-03-08T04:08:04;1.10;;;1.00;;
4468;SDS011;2247;42.666;23.292;2024-03-08T04:10:31;1.00;;;1.00;;
4468;SDS011;2247;42.666;23.292;2024-03-08T04:12:58;2.10;;;1.23;;
4468;SDS011;2247;42.666;23.292;2024-03-08T04:15:25;1.20;;;1.10;;
4468;SDS011;2247;42.666;23.292;2024-03-08T04:17:52;1.17;;;1.00;;
4468;SDS011;2247;42.666;23.292;2024-03-08T04:20:19;0.90;;;0.90;;
4468;SDS011;2247;42.666;23.292;2024-03-08T04:22:47;1.80;;;1.50;;
4468;SDS011;2247;42.666;23.292;2024-03-08T04:25:14;1.30;;;1.20;;
4468;SDS011;2247;42.666;23.292;2024-03-08T04:27:41;1.20;;;1.10;;
4468;SDS011;2247;42.666;23.292;2024-03-08T04:30:09;1.33;;;1.23;;
4468;SDS011;2247;42.666;23.292;2024-03-08T04:32:37;1.13;;;1.13;;
4468;SDS011;2247;42.666;23.292;2024-03-08T04:35:04;1.57;;;1.47;;
4468;SDS011;2247;42.666;23.292;2024-03-08T04:37:31;1.57;;;1.30;;
4468;SDS011;2247;42.666;23.292;2024-03-08T04:40:00;1.50;;;1.40;;
4468;SDS011;2247;42.666;23.292;2024-03-08T04:42:27;1.57;;;1.47;;
4468;SDS011;2247;42.666;23.292;2024-03-08T04:44:58;2.50;;;1.70;;
4468;SDS011;2247;42.666;23.292;2024-03-08T04:47:25;1.63;;;1.53;;
4468;SDS011;2247;42.666;23.292;2024-03-08T04:49:52;2.63;;;1.63;;
4468;SDS011;2247;42.666;23.292;2024-03-08T04:52:19;2.13;;;1.87;;
4468;SDS011;2247;42.666;23.292;2024-03-08T04:54:47;2.10;;;1.93;;
4468;SDS011;2247;42.666;23.292;2024-03-08T04:57:15;2.17;;;1.93;;
4468;SDS011;2247;42.666;23.292;2024-03-08T04:59:43;2.30;;;2.10;;
4468;SDS011;2247;42.666;23.292;2024-03-08T05:02:10;1.80;;;1.70;;
4468;SDS011;2247;42.666;23.292;2024-03-08T05:04:37;4.13;;;2.27;;
4468;SDS011;2247;42.666;23.292;2024-03-08T05:07:04;2.40;;;1.97;;
4468;SDS011;2247;42.666;23.292;2024-03-08T05:09:31;2.70;;;2.17;;
4468;SDS011;2247;42.666;23.292;2024-03-08T05:12:01;3.70;;;2.10;;
4468;SDS011;2247;42.666;23.292;2024-03-08T05:14:29;2.60;;;2.23;;
4468;SDS011;2247;42.666;23.292;2024-03-08T05:16:56;3.63;;;2.60;;
4468;SDS011;2247;42.666;23.292;2024-03-08T05:19:23;3.60;;;2.70;;
4468;SDS011;2247;42.666;23.292;2024-03-08T05:21:50;2.60;;;2.20;;
4468;SDS011;2247;42.666;23.292;2024-03-08T05:24:18;2.83;;;2.20;;
4468;SDS011;2247;42.666;23.292;2024-03-08T05:26:45;4.27;;;2.80;;
4468;SDS011;2247;42.666;23.292;2024-03-08T05:29:12;3.57;;;2.97;;
4468;SDS011;2247;42.666;23.292;2024-03-08T05:31:45;3.50;;;2.57;;
4468;SDS011;2247;42.666;23.292;2024-03-08T05:34:13;3.57;;;2.90;;
4468;SDS011;2247;42.666;23.292;2024-03-08T05:36:40;3.93;;;3.30;;
4468;SDS011;2247;42.666;23.292;2024-03-08T05:39:09;3.17;;;2.77;;
4468;SDS011;2247;42.666;23.292;2024-03-08T05:41:37;4.97;;;3.00;;
4468;SDS011;2247;42.666;23.292;2024-03-08T05:44:04;4.90;;;3.40;;
4468;SDS011;2247;42.666;23.292;2024-03-08T05:46:31;4.10;;;3.43;;
4468;SDS011;2247;42.666;23.292;2024-03-08T05:48:59;3.80;;;3.13;;
4468;SDS011;2247;42.666;23.292;2024-03-08T05:51:30;4.33;;;3.50;;
4468;SDS011;2247;42.666;23.292;2024-03-08T05:53:59;4.70;;;3.23;;
4468;SDS011;2247;42.666;23.292;2024-03-08T05:56:28;5.20;;;3.30;;
4468;SDS011;2247;42.666;23.292;2024-03-08T05:58:55;4.53;;;3.77;;
4468;SDS011;2247;42.666;23.292;2024-03-08T06:01:23;6.80;;;3.90;;
4468;SDS011;2247;42.666;23.292;2024-03-08T06:03:51;4.30;;;3.50;;
4468;SDS011;2247;42.666;23.292;2024-03-08T06:06:22;4.33;;;3.40;;
4468;SDS011;2247;42.666;23.292;2024-03-08T06:08:50;4.97;;;3.73;;
4468;SDS011;2247;42.666;23.292;2024-03-08T06:11:17;8.10;;;3.23;;
4468;SDS011;2247;42.666;23.292;2024-03-08T06:13:46;6.20;;;3.63;;
4468;SDS011;2247;42.666;23.292;2024-03-08T06:16:14;4.97;;;4.10;;
4468;SDS011;2247;42.666;23.292;2024-03-08T06:18:41;5.17;;;4.20;;
4468;SDS011;2247;42.666;23.292;2024-03-08T06:21:13;6.03;;;4.10;;
4468;SDS011;2247;42.666;23.292;2024-03-08T06:23:42;7.07;;;4.40;;
4468;SDS011;2247;42.666;23.292;2024-03-08T06:26:09;7.33;;;4.80;;
4468;SDS011;2247;42.666;23.292;2024-03-08T06:28:37;6.50;;;4.20;;
4468;SDS011;2247;42.666;23.292;2024-03-08T06:31:04;6.77;;;4.77;;
4468;SDS011;2247;42.666;23.292;2024-03-08T06:33:32;6.20;;;4.20;;
4468;SDS011;2247;42.666;23.292;2024-03-08T06:36:00;7.50;;;5.00;;
4468;SDS011;2247;42.666;23.292;2024-03-08T06:38:27;8.57;;;5.27;;
4468;SDS011;2247;42.666;23.292;2024-03-08T06:40:57;8.53;;;5.17;;
4468;SDS011;2247;42.666;23.292;2024-03-08T06:43:24;8.27;;;5.80;;
4468;SDS011;2247;42.666;23.292;2024-03-08T06:45:58;7.80;;;5.70;;
4468;SDS011;2247;42.666;23.292;2024-03-08T06:48:25;8.10;;;5.53;;
4468;SDS011;2247;42.666;23.292;2024-03-08T06:50:52;8.63;;;5.93;;
4468;SDS011;2247;42.666;23.292;2024-03-08T06:53:19;9.40;;;6.20;;
4468;SDS011;2247;42.666;23.292;2024-03-08T06:55:46;9.77;;;5.70;;
4468;SDS011;2247;42.666;23.292;2024-03-08T06:58:15;8.50;;;5.63;;
4468;SDS011;2247;42.666;23.292;2024-03-08T07:01:01;8.60;;;5.30;;
4468;SDS011;2247;42.666;23.292;2024-03-08T07:03:29;8.23;;;5.63;;
4468;SDS011;2247;42.666;23.292;2024-03-08T07:05:57;9.77;;;5.70;;
4468;SDS011;2247;42.666;23.292;2024-03-08T07:08:24;8.67;;;5.90;;
4468;SDS011;2247;42.666;23.292;2024-03-08T07:10:52;8.40;;;5.17;;
4468;SDS011;2247;42.666;23.292;2024-03-08T07:13:21;6.57;;;4.67;;
4468;SDS011;2247;42.666;23.292;2024-03-08T07:15:48;6.40;;;4.90;;
4468;SDS011;2247;42.666;23.292;2024-03-08T07:18:17;5.67;;;4.47;;
4468;SDS011;2247;42.666;23.292;2024-03-08T07:20:44;6.63;;;4.60;;
4468;SDS011;2247;42.666;23.292;2024-03-08T07:23:11;6.70;;;4.30;;
4468;SDS011;2247;42.666;23.292;2024-03-08T07:25:59;6.87;;;4.30;;
4468;SDS011;2247;42.666;23.292;2024-03-08T07:28:27;5.90;;;3.90;;
4468;SDS011;2247;42.666;23.292;2024-03-08T07:30:55;5.77;;;4.00;;
4468;SDS011;2247;42.666;23.292;2024-03-08T07:33:36;4.83;;;4.00;;
4468;SDS011;2247;42.666;23.292;2024-03-08T07:36:03;6.37;;;4.03;;
4468;SDS011;2247;42.666;23.292;2024-03-08T07:38:31;6.73;;;4.40;;
4468;SDS011;2247;42.666;23.292;2024-03-08T07:40:59;4.93;;;4.33;;
4468;SDS011;2247;42.666;23.292;2024-03-08T07:43:28;8.73;;;4.20;;
4468;SDS011;2247;42.666;23.292;2024-03-08T07:45:54;13.10;;;4.77;;
4468;SDS011;2247;42.666;23.292;2024-03-08T07:48:22;8.70;;;6.47;;
4468;SDS011;2247;42.666;23.292;2024-03-08T07:50:49;7.10;;;4.80;;
4468;SDS011;2247;42.666;23.292;2024-03-08T07:53:16;6.23;;;4.67;;
4468;SDS011;2247;42.666;23.292;2024-03-08T07:55:43;6.20;;;4.90;;
4468;SDS011;2247;42.666;23.292;2024-03-08T07:58:10;7.30;;;5.17;;
4468;SDS011;2247;42.666;23.292;2024-03-08T08:00:40;6.70;;;5.20;;
4468;SDS011;2247;42.666;23.292;2024-03-08T08:03:08;9.10;;;5.37;;
4468;SDS011;2247;42.666;23.292;2024-03-08T08:05:35;8.27;;;5.20;;
4468;SDS011;2247;42.666;23.292;2024-03-08T08:08:04;7.90;;;5.07;;
4468;SDS011;2247;42.666;23.292;2024-03-08T08:10:31;7.80;;;4.60;;
4468;SDS011;2247;42.666;23.292;2024-03-08T08:12:59;7.03;;;5.37;;
4468;SDS011;2247;42.666;23.292;2024-03-08T08:15:26;7.57;;;5.37;;
4468;SDS011;2247;42.666;23.292;2024-03-08T08:17:55;6.30;;;5.00;;
4468;SDS011;2247;42.666;23.292;2024-03-08T08:20:22;9.10;;;5.40;;
4468;SDS011;2247;42.666;23.292;2024-03-08T08:22:51;8.00;;;5.20;;
4468;SDS011;2247;42.666;23.292;2024-03-08T08:25:20;8.50;;;4.50;;
4468;SDS011;2247;42.666;23.292;2024-03-08T08:27:49;8.30;;;4.90;;
4468;SDS011;2247;42.666;23.292;2024-03-08T08:30:18;11.00;;;6.57;;
4468;SDS011;2247;42.666;23.292;2024-03-08T08:32:46;8.73;;;5.50;;
4468;SDS011;2247;42.666;23.292;2024-03-08T08:35:15;11.43;;;6.10;;
4468;SDS011;2247;42.666;23.292;2024-03-08T08:37:45;10.00;;;6.20;;
4468;SDS011;2247;42.666;23.292;2024-03-08T08:40:12;9.20;;;5.97;;
4468;SDS011;2247;42.666;23.292;2024-03-08T08:42:44;7.50;;;5.80;;
4468;SDS011;2247;42.666;23.292;2024-03-08T08:45:13;7.10;;;5.20;;
4468;SDS011;2247;42.666;23.292;2024-03-08T08:47:42;8.03;;;5.60;;
4468;SDS011;2247;42.666;23.292;2024-03-08T08:50:10;10.40;;;6.70;;
4468;SDS011;2247;42.666;23.292;2024-03-08T08:52:39;8.37;;;5.80;;
4468;SDS011;2247;42.666;23.292;2024-03-08T08:55:08;8.10;;;5.70;;
4468;SDS011;2247;42.666;23.292;2024-03-08T08:57:39;7.40;;;5.70;;
4468;SDS011;2247;42.666;23.292;2024-03-08T09:00:07;10.90;;;6.27;;
4468;SDS011;2247;42.666;23.292;2024-03-08T09:02:39;7.87;;;5.40;;
4468;SDS011;2247;42.666;23.292;2024-03-08T09:05:07;7.60;;;5.20;;
4468;SDS011;2247;42.666;23.292;2024-03-08T09:07:34;5.27;;;4.27;;
4468;SDS011;2247;42.666;23.292;2024-03-08T09:10:04;4.77;;;3.83;;
4468;SDS011;2247;42.666;23.292;2024-03-08T09:12:35;5.00;;;3.80;;
4468;SDS011;2247;42.666;23.292;2024-03-08T09:15:07;7.57;;;4.63;;
4468;SDS011;2247;42.666;23.292;2024-03-08T09:17:36;7.70;;;4.00;;
4468;SDS011;2247;42.666;23.292;2024-03-08T09:20:05;3.60;;;3.20;;
4468;SDS011;2247;42.666;23.292;2024-03-08T09:22:34;6.97;;;3.70;;
4468;SDS011;2247;42.666;23.292;2024-03-08T09:25:05;5.27;;;3.90;;
4468;SDS011;2247;42.666;23.292;2024-03-08T09:27:34;12.60;;;4.50;;
4468;SDS011;2247;42.666;23.292;2024-03-08T09:30:02;6.60;;;4.57;;
4468;SDS011;2247;42.666;23.292;2024-03-08T09:32:32;7.93;;;4.27;;
4468;SDS011;2247;42.666;23.292;2024-03-08T09:34:59;6.73;;;4.70;;
4468;SDS011;2247;42.666;23.292;2024-03-08T09:37:27;5.40;;;4.13;;
4468;SDS011;2247;42.666;23.292;2024-03-08T09:39:54;15.83;;;5.60;;
4468;SDS011;2247;42.666;23.292;2024-03-08T09:42:25;6.10;;;4.10;;
4468;SDS011;2247;42.666;23.292;2024-03-08T09:44:53;5.50;;;4.17;;
4468;SDS011;2247;42.666;23.292;2024-03-08T09:47:21;4.53;;;3.57;;
4468;SDS011;2247;42.666;23.292;2024-03-08T09:49:54;4.97;;;3.37;;
4468;SDS011;2247;42.666;23.292;2024-03-08T09:52:21;5.50;;;3.33;;
4468;SDS011;2247;42.666;23.292;2024-03-08T09:54:49;4.20;;;2.90;;
4468;SDS011;2247;42.666;23.292;2024-03-08T09:57:17;5.80;;;3.00;;
4468;SDS011;2247;42.666;23.292;2024-03-08T09:59:47;3.63;;;2.80;;
4468;SDS011;2247;42.666;23.292;2024-03-08T10:02:16;2.43;;;2.20;;
4468;SDS011;2247;42.666;23.292;2024-03-08T10:04:44;2.90;;;2.60;;
4468;SDS011;2247;42.666;23.292;2024-03-08T10:07:12;3.63;;;2.83;;
4468;SDS011;2247;42.666;23.292;2024-03-08T10:09:40;3.27;;;2.97;;
4468;SDS011;2247;42.666;23.292;2024-03-08T10:12:12;4.13;;;2.70;;
4468;SDS011;2247;42.666;23.292;2024-03-08T10:14:40;3.90;;;3.03;;
4468;SDS011;2247;42.666;23.292;2024-03-08T10:17:11;5.60;;;3.60;;
4468;SDS011;2247;42.666;23.292;2024-03-08T10:19:38;5.13;;;3.27;;
4468;SDS011;2247;42.666;23.292;2024-03-08T10:22:16;9.10;;;3.37;;
4468;SDS011;2247;42.666;23.292;2024-03-08T10:24:45;3.87;;;3.00;;
4468;SDS011;2247;42.666;23.292;2024-03-08T10:27:12;7.83;;;2.57;;
4468;SDS011;2247;42.666;23.292;2024-03-08T10:29:41;3.50;;;2.80;;
4468;SDS011;2247;42.666;23.292;2024-03-08T10:32:12;4.60;;;2.67;;
4468;SDS011;2247;42.666;23.292;2024-03-08T10:34:39;3.10;;;2.80;;
4468;SDS011;2247;42.666;23.292;2024-03-08T10:37:07;3.20;;;2.80;;
4468;SDS011;2247;42.666;23.292;2024-03-08T10:39:40;6.67;;;3.30;;
4468;SDS011;2247;42.666;23.292;2024-03-08T10:42:15;4.07;;;2.63;;
4468;SDS011;2247;42.666;23.292;2024-03-08T10:44:48;5.00;;;2.80;;
4468;SDS011;2247;42.666;23.292;2024-03-08T10:47:25;3.23;;;2.77;;
4468;SDS011;2247;42.666;23.292;2024-03-08T10:49:58;3.20;;;2.60;;
4468;SDS011;2247;42.666;23.292;2024-03-08T10:52:32;5.40;;;2.60;;
4468;SDS011;2247;42.666;23.292;2024-03-08T10:55:00;3.70;;;2.30;;
4468;SDS011;2247;42.666;23.292;2024-03-08T10:57:29;4.20;;;2.50;;
4468;SDS011;2247;42.666;23.292;2024-03-08T10:59:57;3.70;;;2.63;;
4468;SDS011;2247;42.666;23.292;2024-03-08T11:02:27;2.30;;;1.90;;
4468;SDS011;2247;42.666;23.292;2024-03-08T11:04:54;2.20;;;1.97;;
4468;SDS011;2247;42.666;23.292;2024-03-08T11:07:23;3.00;;;2.53;;
4468;SDS011;2247;42.666;23.292;2024-03-08T11:09:54;2.60;;;2.20;;
4468;SDS011;2247;42.666;23.292;2024-03-08T11:12:23;2.90;;;2.50;;
4468;SDS011;2247;42.666;23.292;2024-03-08T11:14:54;2.73;;;2.43;;
4468;SDS011;2247;42.666;23.292;2024-03-08T11:17:39;2.53;;;2.23;;
4468;SDS011;2247;42.666;23.292;2024-03-08T11:20:11;3.47;;;2.50;;
4468;SDS011;2247;42.666;23.292;2024-03-08T11:22:49;3.80;;;2.67;;
4468;SDS011;2247;42.666;23.292;2024-03-08T11:25:33;8.83;;;2.77;;
4468;SDS011;2247;42.666;23.292;2024-03-08T11:28:10;3.20;;;2.87;;
4468;SDS011;2247;42.666;23.292;2024-03-08T11:30:46;3.13;;;2.73;;
4468;SDS011;2247;42.666;23.292;2024-03-08T11:33:36;3.17;;;2.73;;
4468;SDS011;2247;42.666;23.292;2024-03-08T11:36:10;2.40;;;2.20;;
4468;SDS011;2247;42.666;23.292;2024-03-08T11:38:41;2.27;;;2.07;;
4468;SDS011;2247;42.666;23.292;2024-03-08T11:41:09;2.60;;;2.40;;
4468;SDS011;2247;42.666;23.292;2024-03-08T11:43:39;5.13;;;2.70;;
4468;SDS011;2247;42.666;23.292;2024-03-08T11:46:07;2.73;;;2.47;;
4468;SDS011;2247;42.666;23.292;2024-03-08T11:48:36;4.20;;;2.73;;
4468;SDS011;2247;42.666;23.292;2024-03-08T11:51:04;5.30;;;3.17;;
4468;SDS011;2247;42.666;23.292;2024-03-08T11:53:33;2.60;;;2.40;;
4468;SDS011;2247;42.666;23.292;2024-03-08T11:56:06;2.30;;;2.10;;
4468;SDS011;2247;42.666;23.292;2024-03-08T11:58:34;5.03;;;2.33;;
4468;SDS011;2247;42.666;23.292;2024-03-08T12:01:02;5.57;;;2.60;;
4468;SDS011;2247;42.666;23.292;2024-03-08T12:03:31;2.40;;;2.20;;
4468;SDS011;2247;42.666;23.292;2024-03-08T12:06:00;2.93;;;2.73;;
4468;SDS011;2247;42.666;23.292;2024-03-08T12:08:30;8.90;;;2.57;;
4468;SDS011;2247;42.666;23.292;2024-03-08T12:10:57;3.63;;;2.00;;
4468;SDS011;2247;42.666;23.292;2024-03-08T12:13:26;2.07;;;1.87;;
4468;SDS011;2247;42.666;23.292;2024-03-08T12:15:57;2.20;;;2.00;;
4468;SDS011;2247;42.666;23.292;2024-03-08T12:18:27;2.00;;;1.90;;
4468;SDS011;2247;42.666;23.292;2024-03-08T12:21:05;2.00;;;1.90;;
4468;SDS011;2247;42.666;23.292;2024-03-08T12:23:34;3.20;;;2.10;;
4468;SDS011;2247;42.666;23.292;2024-03-08T12:26:11;2.13;;;1.70;;
4468;SDS011;2247;42.666;23.292;2024-03-08T12:28:39;3.53;;;1.70;;
4468;SDS011;2247;42.666;23.292;2024-03-08T12:31:07;2.10;;;1.90;;
4468;SDS011;2247;42.666;23.292;2024-03-08T12:33:36;3.67;;;1.77;;
4468;SDS011;2247;42.666;23.292;2024-03-08T12:36:10;2.33;;;2.13;;
4468;SDS011;2247;42.666;23.292;2024-03-08T12:38:43;3.30;;;2.20;;
4468;SDS011;2247;42.666;23.292;2024-03-08T12:41:13;4.83;;;2.20;;
4468;SDS011;2247;42.666;23.292;2024-03-08T12:43:40;2.07;;;1.87;;
4468;SDS011;2247;42.666;23.292;2024-03-08T12:46:07;3.17;;;1.80;;
4468;SDS011;2247;42.666;23.292;2024-03-08T12:48:35;4.23;;;1.80;;
4468;SDS011;2247;42.666;23.292;2024-03-08T12:51:07;2.80;;;2.30;;
4468;SDS011;2247;42.666;23.292;2024-03-08T12:53:35;2.40;;;2.17;;
4468;SDS011;2247;42.666;23.292;2024-03-08T12:56:05;2.20;;;2.00;;
4468;SDS011;2247;42.666;23.292;2024-03-08T12:58:34;2.27;;;2.07;;
4468;SDS011;2247;42.666;23.292;2024-03-08T13:01:02;2.20;;;2.00;;
4468;SDS011;2247;42.666;23.292;2024-03-08T13:03:32;4.00;;;2.17;;
4468;SDS011;2247;42.666;23.292;2024-03-08T13:06:01;2.40;;;2.20;;
4468;SDS011;2247;42.666;23.292;2024-03-08T13:08:34;3.33;;;2.33;;
4468;SDS011;2247;42.666;23.292;2024-03-08T13:11:04;2.20;;;2.00;;
4468;SDS011;2247;42.666;23.292;2024-03-08T13:13:32;2.77;;;2.00;;
4468;SDS011;2247;42.666;23.292;2024-03-08T13:16:01;2.43;;;2.23;;
4468;SDS011;2247;42.666;23.292;2024-03-08T13:18:33;2.23;;;2.03;;
4468;SDS011;2247;42.666;23.292;2024-03-08T13:21:00;2.63;;;2.00;;
4468;SDS011;2247;42.666;23.292;2024-03-08T13:23:31;2.77;;;2.23;;
4468;SDS011;2247;42.666;23.292;2024-03-08T13:26:04;2.43;;;2.10;;
4468;SDS011;2247;42.666;23.292;2024-03-08T13:28:32;2.47;;;2.07;;
4468;SDS011;2247;42.666;23.292;2024-03-08T13:31:02;2.20;;;2.00;;
4468;SDS011;2247;42.666;23.292;2024-03-08T13:33:32;4.37;;;1.90;;
4468;SDS011;2247;42.666;23.292;2024-03-08T13:36:02;2.03;;;1.87;;
4468;SDS011;2247;42.666;23.292;2024-03-08T13:38:31;2.53;;;2.10;;
4468;SDS011;2247;42.666;23.292;2024-03-08T13:41:00;2.37;;;2.17;;
4468;SDS011;2247;42.666;23.292;2024-03-08T13:43:28;24.13;;;12.70;;
4468;SDS011;2247;42.666;23.292;2024-03-08T13:45:57;2.77;;;2.00;;
4468;SDS011;2247;42.666;23.292;2024-03-08T13:48:25;2.20;;;2.00;;
4468;SDS011;2247;42.666;23.292;2024-03-08T13:50:52;3.00;;;2.27;;
4468;SDS011;2247;42.666;23.292;2024-03-08T13:53:20;2.33;;;2.13;;
4468;SDS011;2247;42.666;23.292;2024-03-08T13:55:48;5.17;;;2.20;;
4468;SDS011;2247;42.666;23.292;2024-03-08T13:58:17;2.60;;;2.27;;
4468;SDS011;2247;42.666;23.292;2024-03-08T14:00:45;2.93;;;1.80;;
4468;SDS011;2247;42.666;23.292;2024-03-08T14:03:13;2.00;;;1.80;;
4468;SDS011;2247;42.666;23.292;2024-03-08T14:05:40;3.23;;;1.80;;
4468;SDS011;2247;42.666;23.292;2024-03-08T14:08:07;1.93;;;1.60;;
4468;SDS011;2247;42.666;23.292;2024-03-08T14:10:37;4.57;;;2.00;;
4468;SDS011;2247;42.666;23.292;2024-03-08T14:13:04;1.80;;;1.70;;
4468;SDS011;2247;42.666;23.292;2024-03-08T14:15:33;2.30;;;2.10;;
4468;SDS011;2247;42.666;23.292;2024-03-08T14:18:01;2.20;;;2.00;;
4468;SDS011;2247;42.666;23.292;2024-03-08T14:20:28;7.10;;;2.20;;
4468;SDS011;2247;42.666;23.292;2024-03-08T14:22:56;2.90;;;2.03;;
4468;SDS011;2247;42.666;23.292;2024-03-08T14:25:23;2.20;;;2.00;;
4468;SDS011;2247;42.666;23.292;2024-03-08T14:27:51;2.67;;;2.07;;
4468;SDS011;2247;42.666;23.292;2024-03-08T14:30:23;2.30;;;2.10;;
4468;SDS011;2247;42.666;23.292;2024-03-08T14:33:01;3.97;;;1.90;;
4468;SDS011;2247;42.666;23.292;2024-03-08T14:35:30;2.77;;;2.30;;
4468;SDS011;2247;42.666;23.292;2024-03-08T14:37:59;2.13;;;1.93;;
4468;SDS011;2247;42.666;23.292;2024-03-08T14:40:26;2.20;;;2.00;;
4468;SDS011;2247;42.666;23.292;2024-03-08T14:42:55;2.80;;;2.23;;
4468;SDS011;2247;42.666;23.292;2024-03-08T14:45:23;3.97;;;2.60;;
4468;SDS011;2247;42.666;23.292;2024-03-08T14:47:51;4.67;;;2.57;;
4468;SDS011;2247;42.666;23.292;2024-03-08T14:50:22;3.00;;;2.30;;
4468;SDS011;2247;42.666;23.292;2024-03-08T14:52:50;6.23;;;2.43;;
4468;SDS011;2247;42.666;23.292;2024-03-08T14:55:18;2.80;;;2.37;;
4468;SDS011;2247;42.666;23.292;2024-03-08T14:57:47;4.53;;;2.70;;
4468;SDS011;2247;42.666;23.292;2024-03-08T15:00:16;3.63;;;2.33;;
4468;SDS011;2247;42.666;23.292;2024-03-08T15:02:52;3.97;;;2.43;;
4468;SDS011;2247;42.666;23.292;2024-03-08T15:05:22;3.00;;;2.50;;
4468;SDS011;2247;42.666;23.292;2024-03-08T15:07:52;3.63;;;2.87;;
4468;SDS011;2247;42.666;23.292;2024-03-08T15:10:20;6.70;;;2.80;;